createdAt,value
2023-03-08T00:00:18.152Z,3.70
2023-03-08T00:03:39.817Z,3.80
2023-03-08T00:07:02.796Z,3.80
2023-03-08T00:10:24.464Z,3.90
2023-03-08T00:13:46.037Z,4.00
2023-03-08T00:17:07.635Z,4.00
2023-03-08T00:20:29.234Z,4.00
2023-03-08T00:23:53.179Z,4.00
2023-03-08T00:27:14.806Z,4.00
2023-03-08T00:30:36.414Z,4.00
2023-03-08T00:33:58.047Z,4.00
2023-03-08T00:37:20.067Z,4.10
2023-03-08T00:40:42.989Z,4.00
2023-03-08T00:44:04.673Z,4.00
2023-03-08T00:47:26.303Z,4.00
2023-03-08T00:50:48.020Z,4.00
2023-03-08T00:54:09.641Z,3.90
2023-03-08T00:57:32.580Z,3.90
2023-03-08T01:00:54.465Z,3.80
2023-03-08T01:04:16.338Z,3.70
2023-03-08T01:07:37.933Z,3.60
2023-03-08T01:11:00.197Z,3.50
2023-03-08T01:14:23.366Z,3.40
2023-03-08T01:17:45.012Z,3.40
2023-03-08T01:21:06.605Z,3.30
2023-03-08T01:24:28.206Z,3.20
2023-03-08T01:27:49.787Z,3.10
2023-03-08T01:31:13.678Z,3.10
2023-03-08T01:34:35.794Z,3.10
2023-03-08T01:37:57.365Z,3.00
2023-03-08T01:41:20.496Z,3.10
2023-03-08T01:44:56.084Z,3.00
2023-03-08T01:48:20.571Z,3.00
2023-03-08T01:51:43.116Z,3.00
2023-03-08T01:55:05.892Z,3.00
2023-03-08T01:58:27.491Z,2.90
2023-03-08T02:01:49.282Z,2.90
2023-03-08T02:05:12.344Z,2.80
2023-03-08T02:08:34.280Z,2.80
2023-03-08T02:11:57.475Z,2.80
2023-03-08T02:15:20.027Z,2.80
2023-03-08T02:18:51.993Z,2.80
2023-03-08T02:22:15.777Z,2.90
2023-03-08T02:25:38.915Z,2.90
2023-03-08T02:29:00.538Z,2.90
2023-03-08T02:32:22.146Z,3.00
2023-03-08T02:35:44.234Z,3.00
2023-03-08T02:39:05.868Z,3.00
2023-03-08T02:42:28.809Z,3.10
2023-03-08T02:45:50.382Z,3.10
2023-03-08T02:49:11.997Z,3.20
2023-03-08T02:52:34.325Z,3.20
2023-03-08T02:55:55.918Z,3.30
2023-03-08T02:59:18.864Z,3.30
2023-03-08T03:02:40.482Z,3.30
2023-03-08T03:06:02.146Z,3.40
2023-03-08T03:09:23.819Z,3.40
2023-03-08T03:12:45.473Z,3.50
2023-03-08T03:16:09.556Z,3.50
2023-03-08T03:19:31.148Z,3.50
2023-03-08T03:22:52.738Z,3.50
2023-03-08T03:26:15.348Z,3.50
2023-03-08T03:29:37.538Z,3.60
2023-03-08T03:33:00.478Z,3.60
2023-03-08T03:36:22.556Z,3.60
2023-03-08T03:39:44.192Z,3.60
2023-03-08T03:43:05.805Z,3.60
2023-03-08T03:46:27.488Z,3.60
2023-03-08T03:49:50.632Z,3.50
2023-03-08T03:53:12.271Z,3.40
2023-03-08T03:56:33.858Z,3.40
2023-03-08T03:59:55.428Z,3.40
2023-03-08T04:03:17.133Z,3.30
2023-03-08T04:06:40.120Z,3.30
2023-03-08T04:10:01.737Z,3.30
2023-03-08T04:13:23.335Z,3.30
2023-03-08T04:16:44.937Z,3.30
2023-03-08T04:20:07.254Z,3.20
2023-03-08T04:23:30.196Z,3.20
2023-03-08T04:26:51.787Z,3.10
2023-03-08T04:30:13.630Z,3.20
2023-03-08T04:33:35.218Z,3.20
2023-03-08T04:36:56.806Z,3.20
2023-03-08T04:40:19.823Z,3.20
2023-03-08T04:43:43.982Z,3.30
2023-03-08T04:47:05.670Z,3.30
2023-03-08T04:50:27.267Z,3.40
2023-03-08T04:53:48.930Z,3.50
2023-03-08T04:57:11.875Z,3.60
2023-03-08T05:00:33.471Z,3.70
2023-03-08T05:03:55.084Z,3.70
2023-03-08T05:07:16.650Z,3.80
2023-03-08T05:10:38.264Z,3.80
2023-03-08T05:14:01.222Z,3.80
2023-03-08T05:17:22.821Z,3.90
2023-03-08T05:20:44.588Z,3.90
2023-03-08T05:24:06.583Z,3.80
2023-03-08T05:27:31.536Z,3.80
2023-03-08T05:31:01.415Z,3.70
2023-03-08T05:34:23.010Z,3.60
2023-03-08T05:37:44.686Z,3.60
2023-03-08T05:41:07.180Z,3.60
2023-03-08T05:44:29.042Z,3.60
2023-03-08T05:47:52.009Z,3.60
2023-03-08T05:51:14.614Z,3.60
2023-03-08T05:54:36.198Z,3.60
2023-03-08T05:57:57.905Z,3.60
2023-03-08T06:01:20.412Z,3.60
2023-03-08T06:04:43.352Z,3.60
2023-03-08T06:08:05.274Z,3.60
2023-03-08T06:11:26.952Z,3.60
2023-03-08T06:14:48.563Z,3.60
2023-03-08T06:18:10.169Z,3.60
2023-03-08T06:21:33.133Z,3.70
2023-03-08T06:24:54.731Z,3.60
2023-03-08T06:28:16.731Z,3.70
2023-03-08T06:31:38.346Z,3.70
2023-03-08T06:34:59.950Z,3.70
2023-03-08T06:38:22.888Z,3.70
2023-03-08T06:41:44.444Z,3.80
2023-03-08T06:45:06.565Z,3.80
2023-03-08T06:48:28.199Z,3.90
2023-03-08T06:51:49.839Z,4.00
2023-03-08T06:55:12.770Z,4.00
2023-03-08T06:58:34.783Z,4.10
2023-03-08T07:01:56.365Z,4.20
2023-03-08T07:05:18.016Z,4.20
2023-03-08T07:08:39.720Z,4.30
2023-03-08T07:12:02.964Z,4.40
2023-03-08T07:15:24.570Z,4.50
2023-03-08T07:18:46.185Z,4.60
2023-03-08T07:22:07.857Z,4.60
2023-03-08T07:25:29.426Z,4.70
2023-03-08T07:28:52.370Z,4.80
2023-03-08T07:32:14.060Z,4.90
2023-03-08T07:35:35.784Z,5.00
2023-03-08T07:38:57.382Z,5.00
2023-03-08T07:42:18.969Z,5.10
2023-03-08T07:45:41.915Z,5.20
2023-03-08T07:49:03.533Z,5.30
2023-03-08T07:52:26.563Z,5.30
2023-03-08T07:55:48.194Z,5.30
2023-03-08T07:59:09.846Z,5.30
2023-03-08T08:02:32.788Z,5.30
2023-03-08T08:05:54.374Z,5.20
2023-03-08T08:09:15.942Z,5.20
2023-03-08T08:12:37.620Z,5.30
2023-03-08T08:15:59.561Z,5.30
2023-03-08T08:19:22.498Z,5.30
2023-03-08T08:22:44.103Z,5.30
2023-03-08T08:26:06.581Z,5.20
2023-03-08T08:29:28.545Z,5.30
2023-03-08T08:32:50.233Z,5.30
2023-03-08T08:36:14.440Z,5.40
2023-03-08T08:39:36.092Z,5.50
2023-03-08T08:42:57.668Z,5.40
2023-03-08T08:46:19.265Z,5.30
2023-03-08T08:49:40.953Z,5.40
2023-03-08T08:53:03.920Z,5.40
2023-03-08T08:56:28.242Z,5.60
2023-03-08T08:59:50.196Z,5.80
2023-03-08T09:03:11.914Z,5.90
2023-03-08T09:06:33.545Z,5.90
2023-03-08T09:09:56.792Z,5.80
2023-03-08T09:13:18.407Z,5.80
2023-03-08T09:16:40.157Z,5.90
2023-03-08T09:20:01.811Z,5.80
2023-03-08T09:23:23.503Z,5.70
2023-03-08T09:26:46.465Z,5.70
2023-03-08T09:30:14.773Z,5.70
2023-03-08T09:33:36.470Z,5.80
2023-03-08T09:36:58.058Z,5.90
2023-03-08T09:40:21.052Z,6.00
2023-03-08T09:43:47.145Z,6.10
2023-03-08T09:47:11.985Z,6.10
2023-03-08T09:50:37.831Z,6.30
2023-03-08T09:54:01.855Z,6.40
2023-03-08T09:57:24.158Z,6.70
2023-03-08T10:00:47.302Z,7.00
2023-03-08T10:04:23.847Z,7.20
2023-03-08T10:07:48.653Z,7.40
2023-03-08T10:11:15.511Z,7.70
2023-03-08T10:14:40.822Z,7.90
2023-03-08T10:18:05.737Z,8.10
2023-03-08T10:21:27.946Z,8.30
2023-03-08T10:24:52.453Z,8.20
2023-03-08T10:28:15.816Z,8.40
2023-03-08T10:31:37.393Z,8.40
2023-03-08T10:35:04.374Z,8.60
2023-03-08T10:38:26.922Z,8.70
2023-03-08T10:41:50.056Z,8.70
2023-03-08T10:45:14.451Z,9.00
2023-03-08T10:48:36.086Z,9.20
2023-03-08T10:52:00.225Z,9.60
2023-03-08T10:55:23.007Z,10.00
2023-03-08T10:58:44.662Z,10.50
2023-03-08T11:02:16.681Z,10.50
2023-03-08T11:05:38.350Z,10.60
2023-03-08T11:09:02.188Z,10.70
2023-03-08T11:12:24.267Z,10.80
2023-03-08T11:15:48.541Z,10.90
2023-03-08T11:19:15.899Z,11.10
2023-03-08T11:22:41.749Z,11.30
2023-03-08T11:26:09.635Z,11.50
2023-03-08T11:29:35.361Z,11.90
2023-03-08T11:33:02.942Z,12.10
2023-03-08T11:36:28.682Z,12.40
2023-03-08T11:39:53.201Z,12.50
2023-03-08T11:43:22.805Z,12.40
2023-03-08T11:46:51.148Z,12.50
2023-03-08T11:50:16.465Z,12.50
2023-03-08T11:53:44.884Z,12.40
2023-03-08T11:57:09.549Z,12.60
2023-03-08T12:00:35.655Z,12.50
2023-03-08T12:04:00.618Z,12.40
2023-03-08T12:07:26.431Z,12.30
2023-03-08T12:10:50.828Z,12.10
2023-03-08T12:14:14.276Z,12.10
2023-03-08T12:17:40.296Z,12.10
2023-03-08T12:21:11.291Z,12.20
2023-03-08T12:24:38.853Z,12.20
2023-03-08T12:28:01.828Z,12.30
2023-03-08T12:31:28.012Z,12.30
2023-03-08T12:34:59.642Z,12.40
2023-03-08T12:38:29.133Z,12.40
2023-03-08T12:41:56.593Z,12.50
2023-03-08T12:45:28.588Z,12.50
2023-03-08T12:48:50.602Z,12.60
2023-03-08T12:52:25.404Z,12.80
2023-03-08T12:55:58.622Z,12.70
2023-03-08T12:59:28.656Z,12.60
2023-03-08T13:02:58.671Z,12.40
2023-03-08T13:06:33.722Z,12.30
2023-03-08T13:09:59.506Z,12.20
2023-03-08T13:13:37.420Z,12.00
2023-03-08T13:17:00.237Z,11.90
2023-03-08T13:20:25.797Z,12.00
2023-03-08T13:23:49.770Z,12.10
2023-03-08T13:27:20.212Z,12.10
2023-03-08T13:30:45.559Z,12.00
2023-03-08T13:34:22.334Z,12.10
2023-03-08T13:37:51.308Z,12.10
2023-03-08T13:41:12.898Z,12.10
2023-03-08T13:44:36.000Z,12.00
2023-03-08T13:47:58.709Z,12.00
2023-03-08T13:51:22.476Z,12.10
2023-03-08T13:54:45.184Z,12.10
2023-03-08T13:58:06.981Z,12.10
2023-03-08T14:01:29.991Z,12.30
2023-03-08T14:04:51.833Z,12.40
2023-03-08T14:08:18.638Z,12.60
2023-03-08T14:11:41.081Z,12.70
2023-03-08T14:15:03.973Z,12.90
2023-03-08T14:18:28.008Z,13.00
2023-03-08T14:21:50.696Z,13.10
2023-03-08T14:25:21.335Z,13.20
2023-03-08T14:28:43.073Z,13.00
2023-03-08T14:32:20.747Z,13.00
2023-03-08T14:35:51.508Z,13.20
2023-03-08T14:39:17.126Z,13.20
2023-03-08T14:42:41.464Z,13.10
2023-03-08T14:46:04.524Z,13.10
2023-03-08T14:49:27.580Z,13.10
2023-03-08T14:52:51.824Z,13.00
2023-03-08T14:56:16.393Z,13.10
2023-03-08T14:59:39.325Z,13.20
2023-03-08T15:03:01.043Z,13.30
2023-03-08T15:06:23.806Z,13.40
2023-03-08T15:09:47.182Z,13.40
2023-03-08T15:13:11.712Z,13.30
2023-03-08T15:16:33.353Z,13.20
2023-03-08T15:19:54.955Z,12.90
2023-03-08T15:23:18.737Z,12.90
2023-03-08T15:26:41.794Z,12.80
2023-03-08T15:30:03.929Z,12.70
2023-03-08T15:33:25.630Z,12.60
2023-03-08T15:36:47.301Z,12.40
2023-03-08T15:40:11.866Z,12.30
2023-03-08T15:43:34.799Z,12.20
2023-03-08T15:46:56.452Z,12.20
2023-03-08T15:50:18.524Z,12.20
2023-03-08T15:53:40.411Z,12.30
2023-03-08T15:57:02.585Z,12.30
2023-03-08T16:00:26.039Z,12.30
2023-03-08T16:03:47.871Z,12.40
2023-03-08T16:07:09.502Z,12.40
2023-03-08T16:10:32.432Z,12.40
2023-03-08T16:13:54.238Z,12.30
2023-03-08T16:17:17.843Z,12.30
2023-03-08T16:20:39.951Z,12.30
2023-03-08T16:24:01.568Z,12.30
2023-03-08T16:27:23.137Z,12.20
2023-03-08T16:30:44.743Z,12.20
2023-03-08T16:34:07.716Z,12.10
2023-03-08T16:37:30.277Z,12.10
2023-03-08T16:40:59.941Z,12.10
2023-03-08T16:44:28.549Z,11.90
2023-03-08T16:47:50.169Z,11.70
2023-03-08T16:51:14.468Z,11.40
2023-03-08T16:54:36.263Z,11.20
2023-03-08T16:57:58.025Z,11.10
2023-03-08T17:01:20.922Z,10.90
2023-03-08T17:04:42.530Z,10.80
2023-03-08T17:08:05.584Z,10.70
2023-03-08T17:11:27.851Z,10.70
2023-03-08T17:14:49.443Z,10.70
2023-03-08T17:18:11.642Z,10.70
2023-03-08T17:21:34.108Z,10.60
2023-03-08T17:24:57.002Z,10.60
2023-03-08T17:28:19.215Z,10.60
2023-03-08T17:31:41.167Z,10.50
2023-03-08T17:35:02.838Z,10.40
2023-03-08T17:38:24.693Z,10.30
2023-03-08T17:41:47.714Z,10.30
2023-03-08T17:45:09.641Z,10.30
2023-03-08T17:48:31.677Z,10.10
2023-03-08T17:51:53.586Z,10.10
2023-03-08T17:55:15.173Z,10.00
2023-03-08T17:58:38.177Z,10.00
2023-03-08T18:01:59.801Z,10.00
2023-03-08T18:05:21.452Z,10.00
2023-03-08T18:08:43.045Z,10.10
2023-03-08T18:12:05.041Z,10.10
2023-03-08T18:15:29.470Z,10.10
2023-03-08T18:18:52.603Z,10.10
2023-03-08T18:22:14.698Z,10.10
2023-03-08T18:25:37.510Z,10.10
2023-03-08T18:28:59.534Z,10.10
2023-03-08T18:32:22.592Z,10.00
2023-03-08T18:35:44.236Z,10.00
2023-03-08T18:39:06.794Z,9.90
2023-03-08T18:42:29.627Z,9.90
2023-03-08T18:45:51.439Z,10.00
2023-03-08T18:49:15.020Z,10.00
2023-03-08T18:52:36.952Z,9.80
2023-03-08T18:55:59.412Z,9.80
2023-03-08T18:59:21.420Z,9.70
2023-03-08T19:02:43.011Z,9.70
2023-03-08T19:06:06.471Z,9.70
2023-03-08T19:09:28.072Z,9.80
2023-03-08T19:12:49.659Z,9.80
2023-03-08T19:16:17.075Z,9.80
2023-03-08T19:19:38.696Z,9.80
2023-03-08T19:23:02.083Z,9.80
2023-03-08T19:26:24.753Z,9.70
2023-03-08T19:29:46.593Z,9.60
2023-03-08T19:33:10.168Z,9.50
2023-03-08T19:36:34.209Z,9.40
2023-03-08T19:39:57.176Z,9.30
2023-03-08T19:43:18.863Z,9.20
2023-03-08T19:46:40.591Z,9.20
2023-03-08T19:50:02.202Z,9.20
2023-03-08T19:53:23.907Z,9.20
2023-03-08T19:56:46.884Z,9.20
2023-03-08T20:00:09.224Z,9.30
2023-03-08T20:03:30.977Z,9.20
2023-03-08T20:06:52.680Z,9.20
2023-03-08T20:10:16.414Z,9.20
2023-03-08T20:13:39.588Z,9.20
2023-03-08T20:17:01.565Z,9.30
2023-03-08T20:20:23.251Z,9.40
2023-03-08T20:23:44.870Z,9.40
2023-03-08T20:27:06.470Z,9.40
2023-03-08T20:30:29.534Z,9.40
2023-03-08T20:33:51.463Z,9.50
2023-03-08T20:37:13.050Z,9.60
2023-03-08T20:40:34.876Z,9.60
2023-03-08T20:43:56.437Z,9.60
2023-03-08T20:47:19.436Z,9.60
2023-03-08T20:50:41.044Z,9.60
2023-03-08T20:54:02.803Z,9.70
2023-03-08T20:57:24.378Z,9.80
2023-03-08T21:00:46.044Z,9.90
2023-03-08T21:04:08.983Z,9.90
2023-03-08T21:07:31.030Z,9.90
2023-03-08T21:10:52.626Z,9.90
2023-03-08T21:14:14.428Z,10.00
2023-03-08T21:17:36.030Z,9.90
2023-03-08T21:20:59.254Z,10.00
2023-03-08T21:24:21.108Z,10.00
2023-03-08T21:27:42.791Z,10.00
2023-03-08T21:31:07.418Z,10.00
2023-03-08T21:34:29.009Z,10.10
2023-03-08T21:37:51.959Z,10.10
2023-03-08T21:41:16.735Z,10.10
2023-03-08T21:44:38.350Z,10.10
2023-03-08T21:47:59.986Z,10.00
2023-03-08T21:51:21.949Z,10.00
2023-03-08T21:54:44.881Z,9.90
2023-03-08T21:58:06.619Z,9.90
2023-03-08T22:01:29.300Z,9.90
2023-03-08T22:04:51.010Z,9.80
2023-03-08T22:08:13.796Z,9.90
2023-03-08T22:11:36.797Z,9.90
2023-03-08T22:14:58.396Z,9.80
2023-03-08T22:18:20.014Z,9.80
2023-03-08T22:21:41.629Z,9.80
2023-03-08T22:25:04.023Z,9.80
2023-03-08T22:28:27.228Z,9.80
2023-03-08T22:31:48.968Z,9.90
2023-03-08T22:35:11.297Z,9.80
2023-03-08T22:38:33.026Z,9.80
2023-03-08T22:41:54.677Z,9.80
2023-03-08T22:45:17.773Z,9.90
2023-03-08T22:48:39.361Z,9.90
2023-03-08T22:52:01.021Z,9.80
2023-03-08T22:55:22.637Z,9.90
2023-03-08T22:58:44.245Z,9.90
2023-03-08T23:02:07.575Z,10.00
2023-03-08T23:05:29.231Z,10.00
2023-03-08T23:08:51.125Z,10.10
2023-03-08T23:12:12.730Z,10.00
2023-03-08T23:15:34.367Z,10.00
2023-03-08T23:18:57.384Z,10.00
2023-03-08T23:22:19.002Z,9.90
2023-03-08T23:25:40.610Z,9.90
2023-03-08T23:29:02.234Z,9.80
2023-03-08T23:32:23.860Z,9.80
2023-03-08T23:35:49.005Z,9.80
2023-03-08T23:39:10.629Z,9.90
2023-03-08T23:42:33.485Z,9.80
2023-03-08T23:45:55.114Z,9.80
2023-03-08T23:49:16.740Z,9.90
2023-03-08T23:52:39.702Z,9.90
2023-03-08T23:56:01.570Z,9.90
2023-03-08T23:59:23.188Z,9.90
